sensor_id;sensor_type;location;lat;lon;timestamp;temperature;humidity
74822;DHT22;63353;48.702;8.884;2023-12-14T00:00:43;3.80;99.90
74822;DHT22;63353;48.702;8.884;2023-12-14T00:03:09;3.80;99.90
74822;DHT22;63353;48.702;8.884;2023-12-14T00:05:34;3.80;99.90
74822;DHT22;63353;48.702;8.884;2023-12-14T00:08:01;3.80;99.90
74822;DHT22;63353;48.702;8.884;2023-12-14T00:10:26;3.90;99.90
74822;DHT22;63353;48.702;8.884;2023-12-14T00:12:52;3.90;99.90
74822;DHT22;63353;48.702;8.884;2023-12-14T00:15:19;3.90;99.90
74822;DHT22;63353;48.702;8.884;2023-12-14T00:17:45;3.90;99.90
74822;DHT22;63353;48.702;8.884;2023-12-14T00:20:11;3.90;99.90
74822;DHT22;63353;48.702;8.884;2023-12-14T00:22:37;3.90;99.90
74822;DHT22;63353;48.702;8.884;2023-12-14T00:25:04;4.00;99.90
74822;DHT22;63353;48.702;8.884;2023-12-14T00:27:30;3.90;99.90
74822;DHT22;63353;48.702;8.884;2023-12-14T00:29:55;4.00;99.90
74822;DHT22;63353;48.702;8.884;2023-12-14T00:32:21;4.00;99.90
74822;DHT22;63353;48.702;8.884;2023-12-14T00:34:46;4.00;99.90
74822;DHT22;63353;48.702;8.884;2023-12-14T00:37:12;4.10;99.90
74822;DHT22;63353;48.702;8.884;2023-12-14T00:39:38;4.20;99.90
74822;DHT22;63353;48.702;8.884;2023-12-14T00:42:03;4.20;99.90
74822;DHT22;63353;48.702;8.884;2023-12-14T00:44:29;4.20;99.90
74822;DHT22;63353;48.702;8.884;2023-12-14T00:46:55;4.30;99.90
74822;DHT22;63353;48.702;8.884;2023-12-14T00:49:20;4.30;99.90
74822;DHT22;63353;48.702;8.884;2023-12-14T00:51:46;4.30;99.90
74822;DHT22;63353;48.702;8.884;2023-12-14T00:54:12;4.30;99.90
74822;DHT22;63353;48.702;8.884;2023-12-14T00:56:37;4.30;99.90
74822;DHT22;63353;48.702;8.884;2023-12-14T00:59:03;4.10;99.90
74822;DHT22;63353;48.702;8.884;2023-12-14T01:01:28;4.10;99.90
74822;DHT22;63353;48.702;8.884;2023-12-14T01:03:54;4.00;99.90
74822;DHT22;63353;48.702;8.884;2023-12-14T01:06:20;4.00;99.90
74822;DHT22;63353;48.702;8.884;2023-12-14T01:08:45;4.10;99.90
74822;DHT22;63353;48.702;8.884;2023-12-14T01:11:11;4.10;99.90
74822;DHT22;63353;48.702;8.884;2023-12-14T01:13:37;4.10;99.90
74822;DHT22;63353;48.702;8.884;2023-12-14T01:16:02;4.00;99.90
74822;DHT22;63353;48.702;8.884;2023-12-14T01:18:28;3.90;99.90
74822;DHT22;63353;48.702;8.884;2023-12-14T01:20:54;3.90;99.90
74822;DHT22;63353;48.702;8.884;2023-12-14T01:23:19;3.90;99.90
74822;DHT22;63353;48.702;8.884;2023-12-14T01:25:45;3.90;99.90
74822;DHT22;63353;48.702;8.884;2023-12-14T01:28:11;3.90;99.90
74822;DHT22;63353;48.702;8.884;2023-12-14T01:30:37;3.80;99.90
74822;DHT22;63353;48.702;8.884;2023-12-14T01:33:03;3.90;99.90
74822;DHT22;63353;48.702;8.884;2023-12-14T01:35:28;3.90;99.90
74822;DHT22;63353;48.702;8.884;2023-12-14T01:37:55;4.00;99.90
74822;DHT22;63353;48.702;8.884;2023-12-14T01:40:21;4.10;99.90
74822;DHT22;63353;48.702;8.884;2023-12-14T01:42:46;4.10;99.90
74822;DHT22;63353;48.702;8.884;2023-12-14T01:45:12;4.00;99.90
74822;DHT22;63353;48.702;8.884;2023-12-14T01:47:41;4.00;99.90
74822;DHT22;63353;48.702;8.884;2023-12-14T01:50:07;4.10;99.90
74822;DHT22;63353;48.702;8.884;2023-12-14T01:52:33;4.10;99.90
74822;DHT22;63353;48.702;8.884;2023-12-14T01:54:58;4.10;99.90
74822;DHT22;63353;48.702;8.884;2023-12-14T01:57:24;4.10;99.90
74822;DHT22;63353;48.702;8.884;2023-12-14T01:59:50;4.00;99.90
74822;DHT22;63353;48.702;8.884;2023-12-14T02:02:16;4.00;99.90
74822;DHT22;63353;48.702;8.884;2023-12-14T02:04:41;4.00;99.90
74822;DHT22;63353;48.702;8.884;2023-12-14T02:07:07;4.10;99.90
74822;DHT22;63353;48.702;8.884;2023-12-14T02:09:33;4.00;99.90
74822;DHT22;63353;48.702;8.884;2023-12-14T02:11:58;4.00;99.90
74822;DHT22;63353;48.702;8.884;2023-12-14T02:14:24;4.10;99.90
74822;DHT22;63353;48.702;8.884;2023-12-14T02:16:50;4.10;99.90
74822;DHT22;63353;48.702;8.884;2023-12-14T02:19:15;4.20;99.90
74822;DHT22;63353;48.702;8.884;2023-12-14T02:21:41;4.20;99.90
74822;DHT22;63353;48.702;8.884;2023-12-14T02:24:07;4.20;99.90
74822;DHT22;63353;48.702;8.884;2023-12-14T02:26:32;4.30;99.90
74822;DHT22;63353;48.702;8.884;2023-12-14T02:28:58;4.30;99.90
74822;DHT22;63353;48.702;8.884;2023-12-14T02:31:24;4.40;99.90
74822;DHT22;63353;48.702;8.884;2023-12-14T02:33:50;4.40;99.90
74822;DHT22;63353;48.702;8.884;2023-12-14T02:36:15;4.40;99.90
74822;DHT22;63353;48.702;8.884;2023-12-14T02:38:41;4.30;99.90
74822;DHT22;63353;48.702;8.884;2023-12-14T02:41:07;4.30;99.90
74822;DHT22;63353;48.702;8.884;2023-12-14T02:43:32;4.30;99.90
74822;DHT22;63353;48.702;8.884;2023-12-14T02:45:58;4.20;99.90
74822;DHT22;63353;48.702;8.884;2023-12-14T02:48:28;4.20;99.90
74822;DHT22;63353;48.702;8.884;2023-12-14T02:50:54;4.20;99.90
74822;DHT22;63353;48.702;8.884;2023-12-14T02:53:20;4.20;99.90
74822;DHT22;63353;48.702;8.884;2023-12-14T02:55:46;4.20;99.90
74822;DHT22;63353;48.702;8.884;2023-12-14T02:58:11;4.10;99.90
74822;DHT22;63353;48.702;8.884;2023-12-14T03:00:37;4.10;99.90
74822;DHT22;63353;48.702;8.884;2023-12-14T03:03:03;4.10;99.90
74822;DHT22;63353;48.702;8.884;2023-12-14T03:05:28;4.10;99.90
74822;DHT22;63353;48.702;8.884;2023-12-14T03:07:54;4.10;99.90
74822;DHT22;63353;48.702;8.884;2023-12-14T03:10:19;4.20;99.90
74822;DHT22;63353;48.702;8.884;2023-12-14T03:12:45;4.10;99.90
74822;DHT22;63353;48.702;8.884;2023-12-14T03:15:11;4.10;99.90
74822;DHT22;63353;48.702;8.884;2023-12-14T03:17:36;4.10;99.90
74822;DHT22;63353;48.702;8.884;2023-12-14T03:20:02;4.10;99.90
74822;DHT22;63353;48.702;8.884;2023-12-14T03:22:30;4.10;99.90
74822;DHT22;63353;48.702;8.884;2023-12-14T03:24:56;4.10;99.90
74822;DHT22;63353;48.702;8.884;2023-12-14T03:27:21;4.10;99.90
74822;DHT22;63353;48.702;8.884;2023-12-14T03:29:48;4.10;99.90
74822;DHT22;63353;48.702;8.884;2023-12-14T03:32:14;4.10;99.90
74822;DHT22;63353;48.702;8.884;2023-12-14T03:34:39;4.10;99.90
74822;DHT22;63353;48.702;8.884;2023-12-14T03:37:06;4.10;99.90
74822;DHT22;63353;48.702;8.884;2023-12-14T03:39:32;4.00;99.90
74822;DHT22;63353;48.702;8.884;2023-12-14T03:41:57;4.10;99.90
74822;DHT22;63353;48.702;8.884;2023-12-14T03:44:23;4.00;99.90
74822;DHT22;63353;48.702;8.884;2023-12-14T03:46:49;4.00;99.90
74822;DHT22;63353;48.702;8.884;2023-12-14T03:49:15;4.00;99.90
74822;DHT22;63353;48.702;8.884;2023-12-14T03:51:41;4.10;99.90
74822;DHT22;63353;48.702;8.884;2023-12-14T03:54:06;4.10;99.90
74822;DHT22;63353;48.702;8.884;2023-12-14T03:56:32;4.10;99.90
74822;DHT22;63353;48.702;8.884;2023-12-14T03:58:58;4.00;99.90
74822;DHT22;63353;48.702;8.884;2023-12-14T04:01:24;4.10;99.90
74822;DHT22;63353;48.702;8.884;2023-12-14T04:03:49;4.10;99.90
74822;DHT22;63353;48.702;8.884;2023-12-14T04:06:15;4.00;99.90
74822;DHT22;63353;48.702;8.884;2023-12-14T04:08:41;4.10;99.90
74822;DHT22;63353;48.702;8.884;2023-12-14T04:11:07;4.00;99.90
74822;DHT22;63353;48.702;8.884;2023-12-14T04:13:34;4.10;99.90
74822;DHT22;63353;48.702;8.884;2023-12-14T04:16:00;4.10;99.90
74822;DHT22;63353;48.702;8.884;2023-12-14T04:18:25;4.10;99.90
74822;DHT22;63353;48.702;8.884;2023-12-14T04:20:51;4.10;99.90
74822;DHT22;63353;48.702;8.884;2023-12-14T04:23:17;4.10;99.90
74822;DHT22;63353;48.702;8.884;2023-12-14T04:25:43;4.10;99.90
74822;DHT22;63353;48.702;8.884;2023-12-14T04:28:09;4.10;99.90
74822;DHT22;63353;48.702;8.884;2023-12-14T04:30:34;4.10;99.90
74822;DHT22;63353;48.702;8.884;2023-12-14T04:33:00;4.10;99.90
74822;DHT22;63353;48.702;8.884;2023-12-14T04:35:26;4.10;99.90
74822;DHT22;63353;48.702;8.884;2023-12-14T04:37:51;4.10;99.90
74822;DHT22;63353;48.702;8.884;2023-12-14T04:40:17;4.10;99.90
74822;DHT22;63353;48.702;8.884;2023-12-14T04:42:43;4.10;99.90
74822;DHT22;63353;48.702;8.884;2023-12-14T04:45:09;4.30;99.90
74822;DHT22;63353;48.702;8.884;2023-12-14T04:47:35;4.20;99.90
74822;DHT22;63353;48.702;8.884;2023-12-14T04:50:02;4.30;99.90
74822;DHT22;63353;48.702;8.884;2023-12-14T04:52:28;4.30;99.90
74822;DHT22;63353;48.702;8.884;2023-12-14T04:54:53;4.30;99.90
74822;DHT22;63353;48.702;8.884;2023-12-14T04:57:19;4.30;99.90
74822;DHT22;63353;48.702;8.884;2023-12-14T04:59:45;4.30;99.90
74822;DHT22;63353;48.702;8.884;2023-12-14T05:02:10;4.30;99.90
74822;DHT22;63353;48.702;8.884;2023-12-14T05:04:36;4.30;99.90
74822;DHT22;63353;48.702;8.884;2023-12-14T05:07:01;4.30;99.90
74822;DHT22;63353;48.702;8.884;2023-12-14T05:09:27;4.30;99.90
74822;DHT22;63353;48.702;8.884;2023-12-14T05:11:53;4.30;99.90
74822;DHT22;63353;48.702;8.884;2023-12-14T05:14:20;4.30;99.90
74822;DHT22;63353;48.702;8.884;2023-12-14T05:16:46;4.30;99.90
74822;DHT22;63353;48.702;8.884;2023-12-14T05:19:11;4.30;99.90
74822;DHT22;63353;48.702;8.884;2023-12-14T05:21:40;4.30;99.90
74822;DHT22;63353;48.702;8.884;2023-12-14T05:24:06;4.30;99.90
74822;DHT22;63353;48.702;8.884;2023-12-14T05:26:31;4.30;99.90
74822;DHT22;63353;48.702;8.884;2023-12-14T05:28:57;4.40;99.90
74822;DHT22;63353;48.702;8.884;2023-12-14T05:31:22;4.40;99.90
74822;DHT22;63353;48.702;8.884;2023-12-14T05:33:48;4.40;99.90
74822;DHT22;63353;48.702;8.884;2023-12-14T05:36:14;4.40;99.90
74822;DHT22;63353;48.702;8.884;2023-12-14T05:38:41;4.40;99.90
74822;DHT22;63353;48.702;8.884;2023-12-14T05:41:07;4.40;99.90
74822;DHT22;63353;48.702;8.884;2023-12-14T05:43:33;4.40;99.90
74822;DHT22;63353;48.702;8.884;2023-12-14T05:45:59;4.40;99.90
74822;DHT22;63353;48.702;8.884;2023-12-14T05:48:25;4.40;99.90
74822;DHT22;63353;48.702;8.884;2023-12-14T05:50:53;4.40;99.90
74822;DHT22;63353;48.702;8.884;2023-12-14T05:53:19;4.40;99.90
74822;DHT22;63353;48.702;8.884;2023-12-14T05:55:45;4.40;99.90
74822;DHT22;63353;48.702;8.884;2023-12-14T05:58:10;4.40;99.90
74822;DHT22;63353;48.702;8.884;2023-12-14T06:00:36;4.50;99.90
74822;DHT22;63353;48.702;8.884;2023-12-14T06:03:02;4.40;99.90
74822;DHT22;63353;48.702;8.884;2023-12-14T06:05:28;4.40;99.90
74822;DHT22;63353;48.702;8.884;2023-12-14T06:07:54;4.40;99.90
74822;DHT22;63353;48.702;8.884;2023-12-14T06:10:20;4.50;99.90
74822;DHT22;63353;48.702;8.884;2023-12-14T06:12:47;4.50;99.90
74822;DHT22;63353;48.702;8.884;2023-12-14T06:15:12;4.40;99.90
74822;DHT22;63353;48.702;8.884;2023-12-14T06:17:39;4.50;99.90
74822;DHT22;63353;48.702;8.884;2023-12-14T06:20:06;4.50;99.90
74822;DHT22;63353;48.702;8.884;2023-12-14T06:22:38;4.50;99.90
74822;DHT22;63353;48.702;8.884;2023-12-14T06:25:04;4.50;99.90
74822;DHT22;63353;48.702;8.884;2023-12-14T06:27:30;4.50;99.90
74822;DHT22;63353;48.702;8.884;2023-12-14T06:29:56;4.40;99.90
74822;DHT22;63353;48.702;8.884;2023-12-14T06:32:22;4.50;99.90
74822;DHT22;63353;48.702;8.884;2023-12-14T06:34:47;4.50;99.90
74822;DHT22;63353;48.702;8.884;2023-12-14T06:37:13;4.50;99.90
74822;DHT22;63353;48.702;8.884;2023-12-14T06:39:41;4.50;99.90
74822;DHT22;63353;48.702;8.884;2023-12-14T06:42:06;4.50;99.90
74822;DHT22;63353;48.702;8.884;2023-12-14T06:44:32;4.50;99.90
74822;DHT22;63353;48.702;8.884;2023-12-14T06:46:58;4.50;99.90
74822;DHT22;63353;48.702;8.884;2023-12-14T06:49:24;4.50;99.90
74822;DHT22;63353;48.702;8.884;2023-12-14T06:51:50;4.50;99.90
74822;DHT22;63353;48.702;8.884;2023-12-14T06:54:15;4.50;99.90
74822;DHT22;63353;48.702;8.884;2023-12-14T06:56:43;4.50;99.90
74822;DHT22;63353;48.702;8.884;2023-12-14T06:59:09;4.40;99.90
74822;DHT22;63353;48.702;8.884;2023-12-14T07:01:37;4.50;99.90
74822;DHT22;63353;48.702;8.884;2023-12-14T07:04:02;4.50;99.90
74822;DHT22;63353;48.702;8.884;2023-12-14T07:06:29;4.50;99.90
74822;DHT22;63353;48.702;8.884;2023-12-14T07:08:55;4.50;99.90
74822;DHT22;63353;48.702;8.884;2023-12-14T07:11:20;4.50;99.90
74822;DHT22;63353;48.702;8.884;2023-12-14T07:13:46;4.50;99.90
74822;DHT22;63353;48.702;8.884;2023-12-14T07:16:12;4.50;99.90
74822;DHT22;63353;48.702;8.884;2023-12-14T07:18:41;4.50;99.90
74822;DHT22;63353;48.702;8.884;2023-12-14T07:21:07;4.50;99.90
74822;DHT22;63353;48.702;8.884;2023-12-14T07:23:34;4.50;99.90
74822;DHT22;63353;48.702;8.884;2023-12-14T07:26:00;4.60;99.90
74822;DHT22;63353;48.702;8.884;2023-12-14T07:28:26;4.50;99.90
74822;DHT22;63353;48.702;8.884;2023-12-14T07:30:52;4.60;99.90
74822;DHT22;63353;48.702;8.884;2023-12-14T07:33:18;4.60;99.90
74822;DHT22;63353;48.702;8.884;2023-12-14T07:35:45;4.60;99.90
74822;DHT22;63353;48.702;8.884;2023-12-14T07:38:11;4.60;99.90
74822;DHT22;63353;48.702;8.884;2023-12-14T07:40:37;4.60;99.90
74822;DHT22;63353;48.702;8.884;2023-12-14T07:43:04;4.60;99.90
74822;DHT22;63353;48.702;8.884;2023-12-14T07:45:30;4.60;99.90
74822;DHT22;63353;48.702;8.884;2023-12-14T07:47:55;4.60;99.90
74822;DHT22;63353;48.702;8.884;2023-12-14T07:50:21;4.60;99.90
74822;DHT22;63353;48.702;8.884;2023-12-14T07:52:46;4.60;99.90
74822;DHT22;63353;48.702;8.884;2023-12-14T07:55:12;4.60;99.90
74822;DHT22;63353;48.702;8.884;2023-12-14T07:57:39;4.60;99.90
74822;DHT22;63353;48.702;8.884;2023-12-14T08:00:06;4.70;99.90
74822;DHT22;63353;48.702;8.884;2023-12-14T08:02:33;4.70;99.90
74822;DHT22;63353;48.702;8.884;2023-12-14T08:04:59;4.80;99.90
74822;DHT22;63353;48.702;8.884;2023-12-14T08:07:25;4.80;99.90
74822;DHT22;63353;48.702;8.884;2023-12-14T08:09:54;4.90;99.90
74822;DHT22;63353;48.702;8.884;2023-12-14T08:12:20;4.90;99.90
74822;DHT22;63353;48.702;8.884;2023-12-14T08:14:47;4.90;99.90
74822;DHT22;63353;48.702;8.884;2023-12-14T08:17:13;4.90;99.90
74822;DHT22;63353;48.702;8.884;2023-12-14T08:19:38;4.90;99.90
74822;DHT22;63353;48.702;8.884;2023-12-14T08:22:04;4.90;99.90
74822;DHT22;63353;48.702;8.884;2023-12-14T08:24:29;5.00;99.90
74822;DHT22;63353;48.702;8.884;2023-12-14T08:26:55;5.00;99.90
74822;DHT22;63353;48.702;8.884;2023-12-14T08:29:21;5.10;99.90
74822;DHT22;63353;48.702;8.884;2023-12-14T08:31:48;5.10;99.90
74822;DHT22;63353;48.702;8.884;2023-12-14T08:34:13;5.20;99.90
74822;DHT22;63353;48.702;8.884;2023-12-14T08:36:39;5.20;99.90
74822;DHT22;63353;48.702;8.884;2023-12-14T08:39:05;5.30;99.90
74822;DHT22;63353;48.702;8.884;2023-12-14T08:41:31;5.30;99.90
74822;DHT22;63353;48.702;8.884;2023-12-14T08:43:56;5.40;99.90
74822;DHT22;63353;48.702;8.884;2023-12-14T08:46:22;5.50;99.90
74822;DHT22;63353;48.702;8.884;2023-12-14T08:48:48;5.60;99.90
74822;DHT22;63353;48.702;8.884;2023-12-14T08:51:14;5.60;99.90
74822;DHT22;63353;48.702;8.884;2023-12-14T08:53:40;5.50;99.90
74822;DHT22;63353;48.702;8.884;2023-12-14T08:56:05;5.60;99.90
74822;DHT22;63353;48.702;8.884;2023-12-14T08:58:32;5.60;99.90
74822;DHT22;63353;48.702;8.884;2023-12-14T09:00:57;5.60;99.90
74822;DHT22;63353;48.702;8.884;2023-12-14T09:03:23;5.60;99.90
74822;DHT22;63353;48.702;8.884;2023-12-14T09:05:49;5.60;99.90
74822;DHT22;63353;48.702;8.884;2023-12-14T09:08:14;5.70;99.90
74822;DHT22;63353;48.702;8.884;2023-12-14T09:10:40;5.60;99.90
74822;DHT22;63353;48.702;8.884;2023-12-14T09:13:06;5.60;99.90
74822;DHT22;63353;48.702;8.884;2023-12-14T09:15:32;5.70;99.90
74822;DHT22;63353;48.702;8.884;2023-12-14T09:17:57;5.70;99.90
74822;DHT22;63353;48.702;8.884;2023-12-14T09:20:23;5.70;99.90
74822;DHT22;63353;48.702;8.884;2023-12-14T09:22:49;5.70;99.90
74822;DHT22;63353;48.702;8.884;2023-12-14T09:25:15;5.80;99.90
74822;DHT22;63353;48.702;8.884;2023-12-14T09:27:41;5.80;99.90
74822;DHT22;63353;48.702;8.884;2023-12-14T09:30:07;5.80;99.90
74822;DHT22;63353;48.702;8.884;2023-12-14T09:32:33;5.90;99.90
74822;DHT22;63353;48.702;8.884;2023-12-14T09:34:59;5.90;99.90
74822;DHT22;63353;48.702;8.884;2023-12-14T09:37:26;6.00;99.90
74822;DHT22;63353;48.702;8.884;2023-12-14T09:39:51;6.00;99.90
74822;DHT22;63353;48.702;8.884;2023-12-14T09:42:20;6.10;99.90
74822;DHT22;63353;48.702;8.884;2023-12-14T09:44:48;6.10;99.90
74822;DHT22;63353;48.702;8.884;2023-12-14T09:47:14;6.20;99.90
74822;DHT22;63353;48.702;8.884;2023-12-14T09:49:41;6.30;99.90
74822;DHT22;63353;48.702;8.884;2023-12-14T09:52:08;6.30;99.90
74822;DHT22;63353;48.702;8.884;2023-12-14T09:54:34;6.30;99.90
74822;DHT22;63353;48.702;8.884;2023-12-14T09:57:00;6.40;99.90
74822;DHT22;63353;48.702;8.884;2023-12-14T09:59:25;6.40;99.90
74822;DHT22;63353;48.702;8.884;2023-12-14T10:01:51;6.40;99.90
74822;DHT22;63353;48.702;8.884;2023-12-14T10:04:18;6.30;99.90
74822;DHT22;63353;48.702;8.884;2023-12-14T10:06:47;6.30;99.90
74822;DHT22;63353;48.702;8.884;2023-12-14T10:09:13;6.40;99.90
74822;DHT22;63353;48.702;8.884;2023-12-14T10:11:41;6.40;99.90
74822;DHT22;63353;48.702;8.884;2023-12-14T10:14:22;6.60;99.90
74822;DHT22;63353;48.702;8.884;2023-12-14T10:16:49;6.70;99.90
74822;DHT22;63353;48.702;8.884;2023-12-14T10:19:17;6.80;99.90
74822;DHT22;63353;48.702;8.884;2023-12-14T10:21:46;6.90;99.90
74822;DHT22;63353;48.702;8.884;2023-12-14T10:24:12;6.90;99.90
74822;DHT22;63353;48.702;8.884;2023-12-14T10:26:38;6.90;99.90
74822;DHT22;63353;48.702;8.884;2023-12-14T10:29:04;6.90;99.90
74822;DHT22;63353;48.702;8.884;2023-12-14T10:31:33;6.90;99.90
74822;DHT22;63353;48.702;8.884;2023-12-14T10:34:04;7.00;99.90
74822;DHT22;63353;48.702;8.884;2023-12-14T10:36:31;7.10;99.90
74822;DHT22;63353;48.702;8.884;2023-12-14T10:38:57;7.30;99.90
74822;DHT22;63353;48.702;8.884;2023-12-14T10:41:24;7.30;99.90
74822;DHT22;63353;48.702;8.884;2023-12-14T10:43:54;7.30;99.90
74822;DHT22;63353;48.702;8.884;2023-12-14T10:46:20;7.40;99.90
74822;DHT22;63353;48.702;8.884;2023-12-14T10:48:52;7.40;99.90
74822;DHT22;63353;48.702;8.884;2023-12-14T10:51:23;7.30;99.90
74822;DHT22;63353;48.702;8.884;2023-12-14T10:53:49;7.30;99.90
74822;DHT22;63353;48.702;8.884;2023-12-14T10:56:17;7.40;99.90
74822;DHT22;63353;48.702;8.884;2023-12-14T10:58:53;7.40;99.90
74822;DHT22;63353;48.702;8.884;2023-12-14T11:01:22;7.50;99.90
74822;DHT22;63353;48.702;8.884;2023-12-14T11:03:50;7.50;99.90
74822;DHT22;63353;48.702;8.884;2023-12-14T11:08:52;7.80;99.90
74822;DHT22;63353;48.702;8.884;2023-12-14T11:11:20;8.00;99.90
74822;DHT22;63353;48.702;8.884;2023-12-14T11:13:51;8.10;99.90
74822;DHT22;63353;48.702;8.884;2023-12-14T11:16:20;8.20;99.90
74822;DHT22;63353;48.702;8.884;2023-12-14T11:18:46;7.90;99.90
74822;DHT22;63353;48.702;8.884;2023-12-14T11:21:18;7.90;99.90
74822;DHT22;63353;48.702;8.884;2023-12-14T11:24:04;7.90;99.90
74822;DHT22;63353;48.702;8.884;2023-12-14T11:26:31;7.70;99.90
74822;DHT22;63353;48.702;8.884;2023-12-14T11:28:56;7.60;99.90
74822;DHT22;63353;48.702;8.884;2023-12-14T11:31:22;7.50;99.90
74822;DHT22;63353;48.702;8.884;2023-12-14T11:33:48;7.30;99.90
74822;DHT22;63353;48.702;8.884;2023-12-14T11:36:14;7.30;99.90
74822;DHT22;63353;48.702;8.884;2023-12-14T11:38:42;7.30;99.90
74822;DHT22;63353;48.702;8.884;2023-12-14T11:41:08;7.30;99.90
74822;DHT22;63353;48.702;8.884;2023-12-14T11:43:41;7.20;99.90
74822;DHT22;63353;48.702;8.884;2023-12-14T11:46:06;7.20;99.90
74822;DHT22;63353;48.702;8.884;2023-12-14T11:48:32;7.20;99.90
74822;DHT22;63353;48.702;8.884;2023-12-14T11:50:58;7.20;99.90
74822;DHT22;63353;48.702;8.884;2023-12-14T11:53:23;7.30;99.90
74822;DHT22;63353;48.702;8.884;2023-12-14T11:55:49;7.30;99.90
74822;DHT22;63353;48.702;8.884;2023-12-14T11:58:15;7.40;99.90
74822;DHT22;63353;48.702;8.884;2023-12-14T12:00:41;7.50;99.90
74822;DHT22;63353;48.702;8.884;2023-12-14T12:05:47;7.50;99.90
74822;DHT22;63353;48.702;8.884;2023-12-14T12:08:15;7.60;99.90
74822;DHT22;63353;48.702;8.884;2023-12-14T12:10:42;7.50;99.90
74822;DHT22;63353;48.702;8.884;2023-12-14T12:13:17;7.50;99.90
74822;DHT22;63353;48.702;8.884;2023-12-14T12:15:44;7.70;99.90
74822;DHT22;63353;48.702;8.884;2023-12-14T12:18:11;7.80;99.90
74822;DHT22;63353;48.702;8.884;2023-12-14T12:20:37;7.90;99.90
74822;DHT22;63353;48.702;8.884;2023-12-14T12:23:03;7.90;99.90
74822;DHT22;63353;48.702;8.884;2023-12-14T12:25:31;7.90;99.90
74822;DHT22;63353;48.702;8.884;2023-12-14T12:27:57;7.90;99.90
74822;DHT22;63353;48.702;8.884;2023-12-14T12:30:23;7.80;99.90
74822;DHT22;63353;48.702;8.884;2023-12-14T12:32:50;7.70;99.90
74822;DHT22;63353;48.702;8.884;2023-12-14T12:35:23;7.50;99.90
74822;DHT22;63353;48.702;8.884;2023-12-14T12:37:49;7.40;99.90
74822;DHT22;63353;48.702;8.884;2023-12-14T12:40:22;7.40;99.90
74822;DHT22;63353;48.702;8.884;2023-12-14T12:42:49;7.50;99.90
74822;DHT22;63353;48.702;8.884;2023-12-14T12:45:15;7.50;99.90
74822;DHT22;63353;48.702;8.884;2023-12-14T12:47:44;7.50;99.90
74822;DHT22;63353;48.702;8.884;2023-12-14T12:50:10;7.50;99.90
74822;DHT22;63353;48.702;8.884;2023-12-14T12:52:36;7.50;99.90
74822;DHT22;63353;48.702;8.884;2023-12-14T12:55:04;7.50;99.90
74822;DHT22;63353;48.702;8.884;2023-12-14T12:57:29;7.50;99.90
74822;DHT22;63353;48.702;8.884;2023-12-14T12:59:55;7.40;99.90
74822;DHT22;63353;48.702;8.884;2023-12-14T13:02:20;7.40;99.90
74822;DHT22;63353;48.702;8.884;2023-12-14T13:04:46;7.30;99.90
74822;DHT22;63353;48.702;8.884;2023-12-14T13:07:12;7.20;99.90
74822;DHT22;63353;48.702;8.884;2023-12-14T13:09:38;7.10;99.90
74822;DHT22;63353;48.702;8.884;2023-12-14T13:12:04;7.00;99.90
74822;DHT22;63353;48.702;8.884;2023-12-14T13:14:30;6.90;99.90
74822;DHT22;63353;48.702;8.884;2023-12-14T13:16:56;6.90;99.90
74822;DHT22;63353;48.702;8.884;2023-12-14T13:19:23;6.80;99.90
74822;DHT22;63353;48.702;8.884;2023-12-14T13:21:49;6.80;99.90
74822;DHT22;63353;48.702;8.884;2023-12-14T13:24:15;6.70;99.90
74822;DHT22;63353;48.702;8.884;2023-12-14T13:26:40;6.70;99.90
74822;DHT22;63353;48.702;8.884;2023-12-14T13:29:06;6.70;99.90
74822;DHT22;63353;48.702;8.884;2023-12-14T13:31:32;6.60;99.90
74822;DHT22;63353;48.702;8.884;2023-12-14T13:33:57;6.60;99.90
74822;DHT22;63353;48.702;8.884;2023-12-14T13:36:23;6.60;99.90
74822;DHT22;63353;48.702;8.884;2023-12-14T13:38:49;6.60;99.90
74822;DHT22;63353;48.702;8.884;2023-12-14T13:41:14;6.60;99.90
74822;DHT22;63353;48.702;8.884;2023-12-14T13:43:40;6.60;99.90
74822;DHT22;63353;48.702;8.884;2023-12-14T13:46:06;6.50;99.90
74822;DHT22;63353;48.702;8.884;2023-12-14T13:48:31;6.40;99.90
74822;DHT22;63353;48.702;8.884;2023-12-14T13:50:57;6.30;99.90
74822;DHT22;63353;48.702;8.884;2023-12-14T13:53:23;6.20;99.90
74822;DHT22;63353;48.702;8.884;2023-12-14T13:55:50;6.10;99.90
74822;DHT22;63353;48.702;8.884;2023-12-14T13:58:15;6.00;99.90
74822;DHT22;63353;48.702;8.884;2023-12-14T14:00:41;6.00;99.90
74822;DHT22;63353;48.702;8.884;2023-12-14T14:03:09;5.90;99.90
74822;DHT22;63353;48.702;8.884;2023-12-14T14:05:34;6.00;99.90
74822;DHT22;63353;48.702;8.884;2023-12-14T14:08:00;5.90;99.90
74822;DHT22;63353;48.702;8.884;2023-12-14T14:10:26;5.90;99.90
74822;DHT22;63353;48.702;8.884;2023-12-14T14:12:52;5.90;99.90
74822;DHT22;63353;48.702;8.884;2023-12-14T14:15:18;5.90;99.90
74822;DHT22;63353;48.702;8.884;2023-12-14T14:17:45;5.90;99.90
74822;DHT22;63353;48.702;8.884;2023-12-14T14:20:13;5.90;99.90
74822;DHT22;63353;48.702;8.884;2023-12-14T14:22:40;5.90;99.90
74822;DHT22;63353;48.702;8.884;2023-12-14T14:25:06;5.80;99.90
74822;DHT22;63353;48.702;8.884;2023-12-14T14:27:33;5.80;99.90
74822;DHT22;63353;48.702;8.884;2023-12-14T14:29:59;5.80;99.90
74822;DHT22;63353;48.702;8.884;2023-12-14T14:32:24;5.80;99.90
74822;DHT22;63353;48.702;8.884;2023-12-14T14:34:50;5.80;99.90
74822;DHT22;63353;48.702;8.884;2023-12-14T14:37:16;5.80;99.90
74822;DHT22;63353;48.702;8.884;2023-12-14T14:39:42;5.80;99.90
74822;DHT22;63353;48.702;8.884;2023-12-14T14:42:10;5.80;99.90
74822;DHT22;63353;48.702;8.884;2023-12-14T14:44:35;5.90;99.90
74822;DHT22;63353;48.702;8.884;2023-12-14T14:47:02;5.90;99.90
74822;DHT22;63353;48.702;8.884;2023-12-14T14:49:28;5.80;99.90
74822;DHT22;63353;48.702;8.884;2023-12-14T14:51:54;5.70;99.90
74822;DHT22;63353;48.702;8.884;2023-12-14T14:54:20;5.70;99.90
74822;DHT22;63353;48.702;8.884;2023-12-14T14:56:46;5.60;99.90
74822;DHT22;63353;48.702;8.884;2023-12-14T14:59:11;5.60;99.90
74822;DHT22;63353;48.702;8.884;2023-12-14T15:01:41;5.60;99.90
74822;DHT22;63353;48.702;8.884;2023-12-14T15:04:06;5.50;99.90
74822;DHT22;63353;48.702;8.884;2023-12-14T15:06:32;5.50;99.90
74822;DHT22;63353;48.702;8.884;2023-12-14T15:08:59;5.50;99.90
74822;DHT22;63353;48.702;8.884;2023-12-14T15:11:25;5.40;99.90
74822;DHT22;63353;48.702;8.884;2023-12-14T15:13:50;5.40;99.90
74822;DHT22;63353;48.702;8.884;2023-12-14T15:16:17;5.40;99.90
74822;DHT22;63353;48.702;8.884;2023-12-14T15:18:43;5.40;99.90
74822;DHT22;63353;48.702;8.884;2023-12-14T15:21:12;5.40;99.90
74822;DHT22;63353;48.702;8.884;2023-12-14T15:23:38;5.30;99.90
74822;DHT22;63353;48.702;8.884;2023-12-14T15:26:05;5.30;99.90
74822;DHT22;63353;48.702;8.884;2023-12-14T15:28:31;5.30;99.90
74822;DHT22;63353;48.702;8.884;2023-12-14T15:30:56;5.30;99.90
74822;DHT22;63353;48.702;8.884;2023-12-14T15:33:22;5.30;99.90
74822;DHT22;63353;48.702;8.884;2023-12-14T15:35:48;5.30;99.90
74822;DHT22;63353;48.702;8.884;2023-12-14T15:38:13;5.30;99.90
74822;DHT22;63353;48.702;8.884;2023-12-14T15:40:39;5.20;99.90
74822;DHT22;63353;48.702;8.884;2023-12-14T15:43:06;5.20;99.90